KCQX Airport (Chatham Muni) Information

FAA: CQX - ICAO: KCQX

KCQX Airport Location

State Massachusetts
County Barnstable
City Chatham
KCQX Airport is 2 miles northwest of Chatham, MA.
Latitude 41-41-17.8950N
Longitude 069-59-22.7470W
Elevation 63ft

KCQX Airport METARs

METAR KCQX 282352Z AUTO 25005G15KT 1/2SM FG VV002 16/14 A2976 RMK AO2 SLP079 T01560144 10172 20156 53011
Altimeter 29.76"
Temperature 15.6°C (60.1°F)
Wind 250° at 5KT with gusts to 15KT
Clouds at 0ft
Visibility 0.5mi
Time observed: 2022-05-28T23:52:00Z

KCQX Airport Details

Status Operational
Activation April 1940
Ownership Public
Usage Public
Chart NEW YORK
ATC on-site No
Beacon schedule sunset-sunrise
Beacon color clear green

KCQX Airport Contacts

Owner TOWN OF CHATHAM
Owner address 549 MAIN STREET, CHATHAM, MA 02633
Owner phone 508-945-5100
Manager AVIATION OFFICER
Manager address BLDG 3468, CAMP EDWARDS, MA 02542
Manager phone 508-968-5851

KCQX Airport (Chatham Muni) Radio Frequencies

KCQX (Airport) Radio Frequencies

UNICOM 122.8
Common traffic advisory frequency (CTAF) 122.8